sensor_id;sensor_type;location;lat;lon;timestamp;temperature;humidity
17968;DHT22;9109;48.050;11.696;2023-01-24T04:47:09;1.20;99.90
17968;DHT22;9109;48.050;11.696;2023-01-24T04:50:35;1.20;99.90
17968;DHT22;9109;48.050;11.696;2023-01-24T04:53:51;1.20;99.90
17968;DHT22;9109;48.050;11.696;2023-01-24T04:56:55;1.10;99.90
17968;DHT22;9109;48.050;11.696;2023-01-24T04:59:57;1.10;99.90
17968;DHT22;9109;48.050;11.696;2023-01-24T05:03:00;1.10;99.90
17968;DHT22;9109;48.050;11.696;2023-01-24T05:06:08;1.10;99.90
17968;DHT22;9109;48.050;11.696;2023-01-24T05:09:10;1.10;99.90
17968;DHT22;9109;48.050;11.696;2023-01-24T05:12:12;1.10;99.90
17968;DHT22;9109;48.050;11.696;2023-01-24T05:15:14;1.20;99.90
17968;DHT22;9109;48.050;11.696;2023-01-24T05:18:20;1.20;99.90
17968;DHT22;9109;48.050;11.696;2023-01-24T05:21:22;1.10;99.90
17968;DHT22;9109;48.050;11.696;2023-01-24T05:24:23;1.10;99.90
17968;DHT22;9109;48.050;11.696;2023-01-24T05:27:25;1.20;99.90
17968;DHT22;9109;48.050;11.696;2023-01-24T05:30:27;1.20;99.90
17968;DHT22;9109;48.050;11.696;2023-01-24T05:33:31;1.20;99.90
17968;DHT22;9109;48.050;11.696;2023-01-24T05:36:32;1.10;99.90
17968;DHT22;9109;48.050;11.696;2023-01-24T05:39:34;1.10;99.90
17968;DHT22;9109;48.050;11.696;2023-01-24T05:42:36;1.10;99.90
17968;DHT22;9109;48.050;11.696;2023-01-24T05:45:38;1.10;99.90
17968;DHT22;9109;48.050;11.696;2023-01-24T05:48:43;1.00;99.90
17968;DHT22;9109;48.050;11.696;2023-01-24T05:51:45;1.10;99.90
17968;DHT22;9109;48.050;11.696;2023-01-24T05:54:47;1.10;99.90
17968;DHT22;9109;48.050;11.696;2023-01-24T05:57:49;1.10;99.90
17968;DHT22;9109;48.050;11.696;2023-01-24T06:00:51;1.10;99.90
17968;DHT22;9109;48.050;11.696;2023-01-24T06:03:54;1.10;99.90
17968;DHT22;9109;48.050;11.696;2023-01-24T06:06:56;1.10;99.90
17968;DHT22;9109;48.050;11.696;2023-01-24T06:09:58;1.20;99.90
17968;DHT22;9109;48.050;11.696;2023-01-24T06:13:00;1.20;99.90
17968;DHT22;9109;48.050;11.696;2023-01-24T06:16:03;1.20;99.90
17968;DHT22;9109;48.050;11.696;2023-01-24T06:19:09;1.10;99.90
17968;DHT22;9109;48.050;11.696;2023-01-24T06:22:20;1.10;99.90
17968;DHT22;9109;48.050;11.696;2023-01-24T06:25:25;1.10;99.90
17968;DHT22;9109;48.050;11.696;2023-01-24T06:28:27;1.10;99.90
17968;DHT22;9109;48.050;11.696;2023-01-24T06:31:34;1.10;99.90
17968;DHT22;9109;48.050;11.696;2023-01-24T06:35:00;1.20;99.90
17968;DHT22;9109;48.050;11.696;2023-01-24T06:38:17;1.20;99.90
17968;DHT22;9109;48.050;11.696;2023-01-24T06:41:19;1.20;99.90
17968;DHT22;9109;48.050;11.696;2023-01-24T06:44:25;1.20;99.90
17968;DHT22;9109;48.050;11.696;2023-01-24T06:47:26;1.30;99.90
17968;DHT22;9109;48.050;11.696;2023-01-24T06:50:30;1.30;99.90
17968;DHT22;9109;48.050;11.696;2023-01-24T06:53:33;1.30;99.90
17968;DHT22;9109;48.050;11.696;2023-01-24T06:56:35;1.30;99.90
17968;DHT22;9109;48.050;11.696;2023-01-24T06:59:37;1.30;99.90
17968;DHT22;9109;48.050;11.696;2023-01-24T07:02:38;1.20;99.90
17968;DHT22;9109;48.050;11.696;2023-01-24T07:05:42;1.20;99.90
17968;DHT22;9109;48.050;11.696;2023-01-24T07:08:43;1.30;99.90
17968;DHT22;9109;48.050;11.696;2023-01-24T07:11:45;1.30;99.90
17968;DHT22;9109;48.050;11.696;2023-01-24T07:14:52;1.30;99.90
17968;DHT22;9109;48.050;11.696;2023-01-24T07:17:54;1.40;99.90
17968;DHT22;9109;48.050;11.696;2023-01-24T07:20:59;1.40;99.90
17968;DHT22;9109;48.050;11.696;2023-01-24T07:24:01;1.30;99.90
17968;DHT22;9109;48.050;11.696;2023-01-24T07:27:04;1.30;99.90
17968;DHT22;9109;48.050;11.696;2023-01-24T07:30:07;1.20;99.90
17968;DHT22;9109;48.050;11.696;2023-01-24T07:33:09;1.20;99.90
17968;DHT22;9109;48.050;11.696;2023-01-24T07:36:13;1.30;99.90
17968;DHT22;9109;48.050;11.696;2023-01-24T07:39:16;1.30;99.90
17968;DHT22;9109;48.050;11.696;2023-01-24T07:42:18;1.30;99.90
17968;DHT22;9109;48.050;11.696;2023-01-24T07:45:19;1.30;99.90
17968;DHT22;9109;48.050;11.696;2023-01-24T07:48:21;1.30;99.90
17968;DHT22;9109;48.050;11.696;2023-01-24T07:51:25;1.30;99.90
17968;DHT22;9109;48.050;11.696;2023-01-24T07:54:27;1.40;99.90
17968;DHT22;9109;48.050;11.696;2023-01-24T07:57:28;1.50;99.90
17968;DHT22;9109;48.050;11.696;2023-01-24T08:00:30;1.50;99.90
17968;DHT22;9109;48.050;11.696;2023-01-24T08:03:32;1.50;99.90
17968;DHT22;9109;48.050;11.696;2023-01-24T08:06:36;1.40;99.90
17968;DHT22;9109;48.050;11.696;2023-01-24T08:09:39;1.40;99.90
17968;DHT22;9109;48.050;11.696;2023-01-24T08:12:41;1.30;99.90
17968;DHT22;9109;48.050;11.696;2023-01-24T08:15:43;1.40;99.90
17968;DHT22;9109;48.050;11.696;2023-01-24T08:18:45;1.50;99.90
17968;DHT22;9109;48.050;11.696;2023-01-24T08:21:48;1.30;99.90
17968;DHT22;9109;48.050;11.696;2023-01-24T08:24:51;1.30;99.90
17968;DHT22;9109;48.050;11.696;2023-01-24T08:27:53;1.30;99.90
17968;DHT22;9109;48.050;11.696;2023-01-24T08:30:57;1.40;99.90
17968;DHT22;9109;48.050;11.696;2023-01-24T08:33:59;1.40;99.90
17968;DHT22;9109;48.050;11.696;2023-01-24T08:37:02;1.50;99.90
17968;DHT22;9109;48.050;11.696;2023-01-24T08:40:05;1.50;99.90
17968;DHT22;9109;48.050;11.696;2023-01-24T08:43:08;1.40;99.90
17968;DHT22;9109;48.050;11.696;2023-01-24T08:46:10;1.40;99.90
17968;DHT22;9109;48.050;11.696;2023-01-24T08:49:12;1.30;99.90
17968;DHT22;9109;48.050;11.696;2023-01-24T08:52:15;1.40;99.90
17968;DHT22;9109;48.050;11.696;2023-01-24T08:55:17;1.50;99.90
17968;DHT22;9109;48.050;11.696;2023-01-24T08:58:19;1.60;99.90
17968;DHT22;9109;48.050;11.696;2023-01-24T09:01:21;1.60;99.90
17968;DHT22;9109;48.050;11.696;2023-01-24T09:04:23;1.60;99.90
17968;DHT22;9109;48.050;11.696;2023-01-24T09:07:28;1.60;99.90
17968;DHT22;9109;48.050;11.696;2023-01-24T09:10:30;1.50;99.90
17968;DHT22;9109;48.050;11.696;2023-01-24T09:13:33;1.30;99.90
17968;DHT22;9109;48.050;11.696;2023-01-24T09:16:35;1.40;99.90
17968;DHT22;9109;48.050;11.696;2023-01-24T09:19:37;1.40;99.90
17968;DHT22;9109;48.050;11.696;2023-01-24T09:22:40;1.40;99.90
17968;DHT22;9109;48.050;11.696;2023-01-24T09:25:49;1.40;99.90
17968;DHT22;9109;48.050;11.696;2023-01-24T09:28:51;1.50;99.90
17968;DHT22;9109;48.050;11.696;2023-01-24T09:31:53;1.60;99.90
17968;DHT22;9109;48.050;11.696;2023-01-24T09:34:55;1.60;99.90
17968;DHT22;9109;48.050;11.696;2023-01-24T09:37:58;1.60;99.90
17968;DHT22;9109;48.050;11.696;2023-01-24T09:41:08;1.70;99.90
17968;DHT22;9109;48.050;11.696;2023-01-24T09:44:18;1.60;99.90
17968;DHT22;9109;48.050;11.696;2023-01-24T09:47:24;1.60;99.90
17968;DHT22;9109;48.050;11.696;2023-01-24T09:50:31;1.60;99.90
17968;DHT22;9109;48.050;11.696;2023-01-24T09:53:41;1.60;99.90
17968;DHT22;9109;48.050;11.696;2023-01-24T09:56:45;1.60;99.90
17968;DHT22;9109;48.050;11.696;2023-01-24T09:59:53;1.60;99.90
17968;DHT22;9109;48.050;11.696;2023-01-24T10:02:59;1.60;99.90
17968;DHT22;9109;48.050;11.696;2023-01-24T10:06:08;1.60;99.90
17968;DHT22;9109;48.050;11.696;2023-01-24T10:09:18;1.60;99.90
17968;DHT22;9109;48.050;11.696;2023-01-24T10:12:35;1.60;99.90
17968;DHT22;9109;48.050;11.696;2023-01-24T10:15:42;1.60;99.90
17968;DHT22;9109;48.050;11.696;2023-01-24T10:18:56;1.70;99.90
17968;DHT22;9109;48.050;11.696;2023-01-24T10:22:13;1.70;99.90
17968;DHT22;9109;48.050;11.696;2023-01-24T10:25:24;1.70;99.90
17968;DHT22;9109;48.050;11.696;2023-01-24T10:28:28;1.70;99.90
17968;DHT22;9109;48.050;11.696;2023-01-24T10:31:33;1.70;99.90
17968;DHT22;9109;48.050;11.696;2023-01-24T10:34:39;1.70;99.90
17968;DHT22;9109;48.050;11.696;2023-01-24T10:37:45;1.70;99.90
17968;DHT22;9109;48.050;11.696;2023-01-24T10:40:52;1.70;99.90
17968;DHT22;9109;48.050;11.696;2023-01-24T10:43:58;1.80;99.90
17968;DHT22;9109;48.050;11.696;2023-01-24T10:47:15;1.70;99.90
17968;DHT22;9109;48.050;11.696;2023-01-24T10:50:22;1.80;99.90
17968;DHT22;9109;48.050;11.696;2023-01-24T10:53:26;1.80;99.90
17968;DHT22;9109;48.050;11.696;2023-01-24T10:56:29;1.90;99.90
17968;DHT22;9109;48.050;11.696;2023-01-24T10:59:31;1.90;99.90
17968;DHT22;9109;48.050;11.696;2023-01-24T11:02:33;1.90;99.90
17968;DHT22;9109;48.050;11.696;2023-01-24T11:05:39;1.90;99.90
17968;DHT22;9109;48.050;11.696;2023-01-24T11:08:42;1.80;99.90
17968;DHT22;9109;48.050;11.696;2023-01-24T11:11:47;1.80;99.90
17968;DHT22;9109;48.050;11.696;2023-01-24T11:14:50;1.80;99.90
17968;DHT22;9109;48.050;11.696;2023-01-24T11:17:55;1.80;99.90
17968;DHT22;9109;48.050;11.696;2023-01-24T11:21:07;1.90;99.90
17968;DHT22;9109;48.050;11.696;2023-01-24T11:24:14;1.90;99.90
17968;DHT22;9109;48.050;11.696;2023-01-24T11:27:19;2.00;99.90
17968;DHT22;9109;48.050;11.696;2023-01-24T11:30:22;2.00;99.90
17968;DHT22;9109;48.050;11.696;2023-01-24T11:33:36;2.10;99.90
17968;DHT22;9109;48.050;11.696;2023-01-24T11:36:45;2.10;99.90
17968;DHT22;9109;48.050;11.696;2023-01-24T11:39:54;2.00;99.90
17968;DHT22;9109;48.050;11.696;2023-01-24T11:46:47;1.90;99.90
17968;DHT22;9109;48.050;11.696;2023-01-24T11:50:11;1.80;99.90
17968;DHT22;9109;48.050;11.696;2023-01-24T11:56:55;2.00;99.90
17968;DHT22;9109;48.050;11.696;2023-01-24T12:00:14;2.00;99.90
17968;DHT22;9109;48.050;11.696;2023-01-24T12:03:48;2.10;99.90
17968;DHT22;9109;48.050;11.696;2023-01-24T12:06:58;2.00;99.90
17968;DHT22;9109;48.050;11.696;2023-01-24T12:10:11;2.00;99.90
17968;DHT22;9109;48.050;11.696;2023-01-24T12:13:22;1.80;99.90
17968;DHT22;9109;48.050;11.696;2023-01-24T12:16:36;1.80;99.90
17968;DHT22;9109;48.050;11.696;2023-01-24T12:20:06;1.70;99.90
17968;DHT22;9109;48.050;11.696;2023-01-24T12:23:19;1.70;99.90
17968;DHT22;9109;48.050;11.696;2023-01-24T12:26:24;1.70;99.90
17968;DHT22;9109;48.050;11.696;2023-01-24T12:29:32;1.70;99.90
17968;DHT22;9109;48.050;11.696;2023-01-24T12:32:40;1.80;99.90
17968;DHT22;9109;48.050;11.696;2023-01-24T12:35:46;1.80;99.90
17968;DHT22;9109;48.050;11.696;2023-01-24T12:38:52;1.80;99.90
17968;DHT22;9109;48.050;11.696;2023-01-24T12:42:01;1.70;99.90
17968;DHT22;9109;48.050;11.696;2023-01-24T12:45:09;1.80;99.90
17968;DHT22;9109;48.050;11.696;2023-01-24T12:48:17;1.80;99.90
17968;DHT22;9109;48.050;11.696;2023-01-24T12:51:24;1.90;99.90
17968;DHT22;9109;48.050;11.696;2023-01-24T12:54:32;1.90;99.90
17968;DHT22;9109;48.050;11.696;2023-01-24T12:57:39;1.80;99.90
17968;DHT22;9109;48.050;11.696;2023-01-24T13:00:50;1.90;99.90
17968;DHT22;9109;48.050;11.696;2023-01-24T13:04:07;1.90;99.90
17968;DHT22;9109;48.050;11.696;2023-01-24T13:07:19;1.90;99.90
17968;DHT22;9109;48.050;11.696;2023-01-24T13:10:31;2.00;99.90
17968;DHT22;9109;48.050;11.696;2023-01-24T13:13:41;1.90;99.90
17968;DHT22;9109;48.050;11.696;2023-01-24T13:20:46;1.90;99.90
17968;DHT22;9109;48.050;11.696;2023-01-24T13:24:11;2.00;99.90
17968;DHT22;9109;48.050;11.696;2023-01-24T13:27:31;2.00;99.90
17968;DHT22;9109;48.050;11.696;2023-01-24T13:30:43;2.00;99.90
17968;DHT22;9109;48.050;11.696;2023-01-24T13:33:50;2.00;99.90
17968;DHT22;9109;48.050;11.696;2023-01-24T13:36:54;2.00;99.90
17968;DHT22;9109;48.050;11.696;2023-01-24T13:40:02;2.10;99.90
17968;DHT22;9109;48.050;11.696;2023-01-24T13:47:01;2.00;99.90
17968;DHT22;9109;48.050;11.696;2023-01-24T13:50:14;1.90;99.90
17968;DHT22;9109;48.050;11.696;2023-01-24T13:53:59;2.00;99.90
17968;DHT22;9109;48.050;11.696;2023-01-24T13:57:17;2.10;99.90
17968;DHT22;9109;48.050;11.696;2023-01-24T14:00:21;2.00;99.90
17968;DHT22;9109;48.050;11.696;2023-01-24T14:03:27;2.10;99.90
17968;DHT22;9109;48.050;11.696;2023-01-24T14:06:39;2.10;99.90
17968;DHT22;9109;48.050;11.696;2023-01-24T14:09:43;2.00;99.90
17968;DHT22;9109;48.050;11.696;2023-01-24T14:12:53;2.00;99.90
17968;DHT22;9109;48.050;11.696;2023-01-24T14:15:55;1.90;99.90
17968;DHT22;9109;48.050;11.696;2023-01-24T14:18:58;1.90;99.90
17968;DHT22;9109;48.050;11.696;2023-01-24T14:22:15;2.00;99.90
17968;DHT22;9109;48.050;11.696;2023-01-24T14:25:30;1.90;99.90
17968;DHT22;9109;48.050;11.696;2023-01-24T14:28:37;1.70;99.90
17968;DHT22;9109;48.050;11.696;2023-01-24T14:31:45;1.70;99.90
17968;DHT22;9109;48.050;11.696;2023-01-24T14:34:55;1.80;99.90
17968;DHT22;9109;48.050;11.696;2023-01-24T14:38:10;1.80;99.90
17968;DHT22;9109;48.050;11.696;2023-01-24T14:41:20;1.80;99.90
17968;DHT22;9109;48.050;11.696;2023-01-24T14:44:24;1.90;99.90
17968;DHT22;9109;48.050;11.696;2023-01-24T14:47:27;1.90;99.90
17968;DHT22;9109;48.050;11.696;2023-01-24T14:50:31;1.90;99.90
17968;DHT22;9109;48.050;11.696;2023-01-24T14:53:34;1.90;99.90
17968;DHT22;9109;48.050;11.696;2023-01-24T14:56:40;2.10;99.90
17968;DHT22;9109;48.050;11.696;2023-01-24T14:59:42;2.20;99.90
17968;DHT22;9109;48.050;11.696;2023-01-24T15:02:51;2.20;99.90
17968;DHT22;9109;48.050;11.696;2023-01-24T15:05:58;2.20;99.90
17968;DHT22;9109;48.050;11.696;2023-01-24T15:09:02;2.30;99.90
17968;DHT22;9109;48.050;11.696;2023-01-24T15:12:22;2.20;99.90
17968;DHT22;9109;48.050;11.696;2023-01-24T15:15:25;2.30;99.90
17968;DHT22;9109;48.050;11.696;2023-01-24T15:18:40;2.20;99.90
17968;DHT22;9109;48.050;11.696;2023-01-24T15:21:45;2.20;99.90
17968;DHT22;9109;48.050;11.696;2023-01-24T15:24:52;2.30;99.90
17968;DHT22;9109;48.050;11.696;2023-01-24T15:27:56;2.30;99.90
17968;DHT22;9109;48.050;11.696;2023-01-24T15:30:59;2.30;99.90
17968;DHT22;9109;48.050;11.696;2023-01-24T15:34:01;2.40;99.90
17968;DHT22;9109;48.050;11.696;2023-01-24T15:37:09;2.30;99.90
17968;DHT22;9109;48.050;11.696;2023-01-24T15:40:17;2.20;99.90
17968;DHT22;9109;48.050;11.696;2023-01-24T15:43:25;2.20;99.90
17968;DHT22;9109;48.050;11.696;2023-01-24T15:46:53;2.20;99.90
17968;DHT22;9109;48.050;11.696;2023-01-24T15:50:17;2.20;99.90
17968;DHT22;9109;48.050;11.696;2023-01-24T15:53:37;2.20;99.90
17968;DHT22;9109;48.050;11.696;2023-01-24T15:56:41;2.30;99.90
17968;DHT22;9109;48.050;11.696;2023-01-24T15:59:46;2.30;99.90
17968;DHT22;9109;48.050;11.696;2023-01-24T16:02:49;2.10;99.90
17968;DHT22;9109;48.050;11.696;2023-01-24T16:05:51;2.00;99.90
17968;DHT22;9109;48.050;11.696;2023-01-24T16:08:53;1.90;99.90
17968;DHT22;9109;48.050;11.696;2023-01-24T16:11:55;1.90;99.90
17968;DHT22;9109;48.050;11.696;2023-01-24T16:15:01;2.10;99.90
17968;DHT22;9109;48.050;11.696;2023-01-24T16:18:03;2.00;99.90
17968;DHT22;9109;48.050;11.696;2023-01-24T16:21:05;2.00;99.90
17968;DHT22;9109;48.050;11.696;2023-01-24T16:24:07;2.10;99.90
17968;DHT22;9109;48.050;11.696;2023-01-24T16:27:10;2.00;99.90
17968;DHT22;9109;48.050;11.696;2023-01-24T16:30:16;2.00;99.90
17968;DHT22;9109;48.050;11.696;2023-01-24T16:33:19;2.00;99.90
17968;DHT22;9109;48.050;11.696;2023-01-24T16:36:22;2.00;99.90
17968;DHT22;9109;48.050;11.696;2023-01-24T16:39:23;2.00;99.90
17968;DHT22;9109;48.050;11.696;2023-01-24T16:42:25;2.00;99.90
17968;DHT22;9109;48.050;11.696;2023-01-24T16:45:29;2.00;99.90
17968;DHT22;9109;48.050;11.696;2023-01-24T16:48:31;1.90;99.90
17968;DHT22;9109;48.050;11.696;2023-01-24T16:51:33;1.90;99.90
17968;DHT22;9109;48.050;11.696;2023-01-24T16:54:34;1.90;99.90
17968;DHT22;9109;48.050;11.696;2023-01-24T16:57:36;1.90;99.90
17968;DHT22;9109;48.050;11.696;2023-01-24T17:00:40;1.90;99.90
17968;DHT22;9109;48.050;11.696;2023-01-24T17:03:41;2.00;99.90
17968;DHT22;9109;48.050;11.696;2023-01-24T17:06:43;2.00;99.90
17968;DHT22;9109;48.050;11.696;2023-01-24T17:09:45;2.00;99.90
17968;DHT22;9109;48.050;11.696;2023-01-24T17:12:47;2.00;99.90
17968;DHT22;9109;48.050;11.696;2023-01-24T17:15:50;2.00;99.90
17968;DHT22;9109;48.050;11.696;2023-01-24T17:18:52;2.00;99.90
17968;DHT22;9109;48.050;11.696;2023-01-24T17:21:54;2.00;99.90
17968;DHT22;9109;48.050;11.696;2023-01-24T17:24:57;2.00;99.90
17968;DHT22;9109;48.050;11.696;2023-01-24T17:27:58;1.80;99.90
17968;DHT22;9109;48.050;11.696;2023-01-24T17:31:06;1.80;99.90
17968;DHT22;9109;48.050;11.696;2023-01-24T17:34:08;1.90;99.90
17968;DHT22;9109;48.050;11.696;2023-01-24T17:37:10;2.00;99.90
17968;DHT22;9109;48.050;11.696;2023-01-24T17:40:12;2.00;99.90
17968;DHT22;9109;48.050;11.696;2023-01-24T17:43:14;2.00;99.90
17968;DHT22;9109;48.050;11.696;2023-01-24T17:46:17;2.00;99.90
17968;DHT22;9109;48.050;11.696;2023-01-24T17:49:19;1.90;99.90
17968;DHT22;9109;48.050;11.696;2023-01-24T17:52:21;1.90;99.90
17968;DHT22;9109;48.050;11.696;2023-01-24T17:55:23;1.80;99.90
17968;DHT22;9109;48.050;11.696;2023-01-24T17:58:25;1.80;99.90
17968;DHT22;9109;48.050;11.696;2023-01-24T18:01:28;1.90;99.90
17968;DHT22;9109;48.050;11.696;2023-01-24T18:04:30;1.80;99.90
17968;DHT22;9109;48.050;11.696;2023-01-24T18:07:32;1.80;99.90
17968;DHT22;9109;48.050;11.696;2023-01-24T18:10:36;1.90;99.90
17968;DHT22;9109;48.050;11.696;2023-01-24T18:13:38;1.80;99.90
17968;DHT22;9109;48.050;11.696;2023-01-24T18:16:43;1.80;99.90
17968;DHT22;9109;48.050;11.696;2023-01-24T18:19:45;1.70;99.90
17968;DHT22;9109;48.050;11.696;2023-01-24T18:22:46;1.70;99.90
17968;DHT22;9109;48.050;11.696;2023-01-24T18:25:48;1.70;99.90
17968;DHT22;9109;48.050;11.696;2023-01-24T18:28:51;1.80;99.90
17968;DHT22;9109;48.050;11.696;2023-01-24T18:31:56;1.90;99.90
17968;DHT22;9109;48.050;11.696;2023-01-24T18:34:58;1.90;99.90
17968;DHT22;9109;48.050;11.696;2023-01-24T18:38:00;1.80;99.90
17968;DHT22;9109;48.050;11.696;2023-01-24T18:41:02;1.90;99.90
17968;DHT22;9109;48.050;11.696;2023-01-24T18:44:04;1.80;99.90
17968;DHT22;9109;48.050;11.696;2023-01-24T18:47:08;1.90;99.90
17968;DHT22;9109;48.050;11.696;2023-01-24T18:50:10;1.70;99.90
17968;DHT22;9109;48.050;11.696;2023-01-24T18:53:12;1.70;99.90
17968;DHT22;9109;48.050;11.696;2023-01-24T18:56:15;1.70;99.90
17968;DHT22;9109;48.050;11.696;2023-01-24T18:59:18;1.70;99.90
17968;DHT22;9109;48.050;11.696;2023-01-24T19:02:21;1.80;99.90
17968;DHT22;9109;48.050;11.696;2023-01-24T19:05:23;1.80;99.90
17968;DHT22;9109;48.050;11.696;2023-01-24T19:08:25;1.90;99.90
17968;DHT22;9109;48.050;11.696;2023-01-24T19:11:28;1.90;99.90
17968;DHT22;9109;48.050;11.696;2023-01-24T19:14:31;1.80;99.90
17968;DHT22;9109;48.050;11.696;2023-01-24T19:17:34;1.70;99.90
17968;DHT22;9109;48.050;11.696;2023-01-24T19:20:36;1.80;99.90
17968;DHT22;9109;48.050;11.696;2023-01-24T19:23:39;1.80;99.90
17968;DHT22;9109;48.050;11.696;2023-01-24T19:26:41;1.80;99.90
17968;DHT22;9109;48.050;11.696;2023-01-24T19:29:43;1.70;99.90
17968;DHT22;9109;48.050;11.696;2023-01-24T19:32:47;1.70;99.90
17968;DHT22;9109;48.050;11.696;2023-01-24T19:35:49;1.80;99.90
17968;DHT22;9109;48.050;11.696;2023-01-24T19:38:52;1.90;99.90
17968;DHT22;9109;48.050;11.696;2023-01-24T19:41:55;1.90;99.90
17968;DHT22;9109;48.050;11.696;2023-01-24T19:44:57;1.90;99.90
17968;DHT22;9109;48.050;11.696;2023-01-24T19:48:00;1.80;99.90
17968;DHT22;9109;48.050;11.696;2023-01-24T19:51:03;1.80;99.90
17968;DHT22;9109;48.050;11.696;2023-01-24T19:54:06;1.80;99.90
17968;DHT22;9109;48.050;11.696;2023-01-24T19:57:08;1.90;99.90
17968;DHT22;9109;48.050;11.696;2023-01-24T20:00:11;1.80;99.90
17968;DHT22;9109;48.050;11.696;2023-01-24T20:03:14;1.90;99.90
17968;DHT22;9109;48.050;11.696;2023-01-24T20:06:17;1.80;99.90
17968;DHT22;9109;48.050;11.696;2023-01-24T20:09:20;1.90;99.90
17968;DHT22;9109;48.050;11.696;2023-01-24T20:12:22;1.90;99.90
17968;DHT22;9109;48.050;11.696;2023-01-24T20:15:24;1.90;99.90
17968;DHT22;9109;48.050;11.696;2023-01-24T20:18:27;1.80;99.90
17968;DHT22;9109;48.050;11.696;2023-01-24T20:21:32;1.80;99.90
17968;DHT22;9109;48.050;11.696;2023-01-24T20:24:34;1.80;99.90
17968;DHT22;9109;48.050;11.696;2023-01-24T20:27:37;1.80;99.90
17968;DHT22;9109;48.050;11.696;2023-01-24T20:30:39;1.90;99.90
17968;DHT22;9109;48.050;11.696;2023-01-24T20:33:46;1.90;99.90
17968;DHT22;9109;48.050;11.696;2023-01-24T20:36:49;1.90;99.90
17968;DHT22;9109;48.050;11.696;2023-01-24T20:39:52;1.80;99.90
17968;DHT22;9109;48.050;11.696;2023-01-24T20:42:54;1.80;99.90
17968;DHT22;9109;48.050;11.696;2023-01-24T20:46:00;1.70;99.90
17968;DHT22;9109;48.050;11.696;2023-01-24T20:49:03;1.70;99.90
17968;DHT22;9109;48.050;11.696;2023-01-24T20:52:05;1.70;99.90
17968;DHT22;9109;48.050;11.696;2023-01-24T20:55:10;1.80;99.90
17968;DHT22;9109;48.050;11.696;2023-01-24T20:58:12;1.80;99.90
17968;DHT22;9109;48.050;11.696;2023-01-24T21:01:17;1.80;99.90
17968;DHT22;9109;48.050;11.696;2023-01-24T21:04:21;1.80;99.90
17968;DHT22;9109;48.050;11.696;2023-01-24T21:07:23;1.70;99.90
17968;DHT22;9109;48.050;11.696;2023-01-24T21:10:28;1.70;99.90
17968;DHT22;9109;48.050;11.696;2023-01-24T21:13:38;1.70;99.90
17968;DHT22;9109;48.050;11.696;2023-01-24T21:16:41;1.80;99.90
17968;DHT22;9109;48.050;11.696;2023-01-24T21:19:44;1.70;99.90
17968;DHT22;9109;48.050;11.696;2023-01-24T21:22:51;1.70;99.90
17968;DHT22;9109;48.050;11.696;2023-01-24T21:26:08;1.80;99.90
17968;DHT22;9109;48.050;11.696;2023-01-24T21:29:18;1.80;99.90
17968;DHT22;9109;48.050;11.696;2023-01-24T21:32:51;1.80;99.90
17968;DHT22;9109;48.050;11.696;2023-01-24T21:36:03;1.90;99.90
17968;DHT22;9109;48.050;11.696;2023-01-24T21:39:05;1.90;99.90
17968;DHT22;9109;48.050;11.696;2023-01-24T21:42:12;1.80;99.90
17968;DHT22;9109;48.050;11.696;2023-01-24T21:45:14;1.80;99.90
17968;DHT22;9109;48.050;11.696;2023-01-24T21:48:30;1.80;99.90
17968;DHT22;9109;48.050;11.696;2023-01-24T21:51:51;1.80;99.90
17968;DHT22;9109;48.050;11.696;2023-01-24T21:54:54;1.80;99.90
17968;DHT22;9109;48.050;11.696;2023-01-24T21:57:55;1.90;99.90
17968;DHT22;9109;48.050;11.696;2023-01-24T22:01:02;1.80;99.90
17968;DHT22;9109;48.050;11.696;2023-01-24T22:04:04;1.70;99.90
17968;DHT22;9109;48.050;11.696;2023-01-24T22:07:08;1.60;99.90
17968;DHT22;9109;48.050;11.696;2023-01-24T22:10:10;1.60;99.90
17968;DHT22;9109;48.050;11.696;2023-01-24T22:13:12;1.60;99.90
17968;DHT22;9109;48.050;11.696;2023-01-24T22:16:14;1.70;99.90
17968;DHT22;9109;48.050;11.696;2023-01-24T22:19:18;1.70;99.90
17968;DHT22;9109;48.050;11.696;2023-01-24T22:22:34;1.70;99.90
17968;DHT22;9109;48.050;11.696;2023-01-24T22:25:46;1.60;99.90
17968;DHT22;9109;48.050;11.696;2023-01-24T22:28:51;1.70;99.90
17968;DHT22;9109;48.050;11.696;2023-01-24T22:31:54;1.80;99.90
17968;DHT22;9109;48.050;11.696;2023-01-24T22:34:58;1.80;99.90
17968;DHT22;9109;48.050;11.696;2023-01-24T22:38:01;1.70;99.90
17968;DHT22;9109;48.050;11.696;2023-01-24T22:41:03;1.70;99.90
17968;DHT22;9109;48.050;11.696;2023-01-24T22:44:07;1.70;99.90
17968;DHT22;9109;48.050;11.696;2023-01-24T22:47:09;1.70;99.90
17968;DHT22;9109;48.050;11.696;2023-01-24T22:50:11;1.60;99.90
17968;DHT22;9109;48.050;11.696;2023-01-24T22:53:14;1.60;99.90
17968;DHT22;9109;48.050;11.696;2023-01-24T22:56:16;1.60;99.90
17968;DHT22;9109;48.050;11.696;2023-01-24T22:59:18;1.60;99.90
17968;DHT22;9109;48.050;11.696;2023-01-24T23:02:20;1.50;99.90
17968;DHT22;9109;48.050;11.696;2023-01-24T23:05:21;1.50;99.90
17968;DHT22;9109;48.050;11.696;2023-01-24T23:08:25;1.50;99.90
17968;DHT22;9109;48.050;11.696;2023-01-24T23:11:27;1.50;99.90
17968;DHT22;9109;48.050;11.696;2023-01-24T23:14:29;1.50;99.90
17968;DHT22;9109;48.050;11.696;2023-01-24T23:18:06;1.50;99.90
17968;DHT22;9109;48.050;11.696;2023-01-24T23:21:08;1.40;99.90
17968;DHT22;9109;48.050;11.696;2023-01-24T23:24:31;1.50;99.90
17968;DHT22;9109;48.050;11.696;2023-01-24T23:27:34;1.60;99.90
17968;DHT22;9109;48.050;11.696;2023-01-24T23:30:41;1.50;99.90
17968;DHT22;9109;48.050;11.696;2023-01-24T23:33:44;1.40;99.90
17968;DHT22;9109;48.050;11.696;2023-01-24T23:36:46;1.50;99.90
17968;DHT22;9109;48.050;11.696;2023-01-24T23:39:50;1.50;99.90
17968;DHT22;9109;48.050;11.696;2023-01-24T23:42:52;1.50;99.90
17968;DHT22;9109;48.050;11.696;2023-01-24T23:45:54;1.50;99.90
17968;DHT22;9109;48.050;11.696;2023-01-24T23:48:56;1.40;99.90
17968;DHT22;9109;48.050;11.696;2023-01-24T23:52:02;1.40;99.90
17968;DHT22;9109;48.050;11.696;2023-01-24T23:55:06;1.30;99.90
17968;DHT22;9109;48.050;11.696;2023-01-24T23:58:08;1.30;99.90
